Time;durP1;ratioP1;P1;durP2;ratioP2;P2;SDS_P1;SDS_P2;PMS_P1;PMS_P2;Temp;Humidity;BMP_temperature;BMP_pressure;BME280_temperature;BME280_humidity;BME280_pressure;Samples;Min_cycle;Max_cycle;Signal;HPM_P1;HPM_P2
2021/10/18 00:12:47;;;;;;;51.93;19.80;;;;;;;7.91;100.00;100730.04;712962;1205;114293;-74
2021/10/18 00:27:49;;;;;;;45.17;21.53;;;;;;;7.72;100.00;100727.88;713040;1203;114511;-73
2021/10/18 00:42:53;;;;;;;20.58;11.98;;;;;;;7.72;100.00;100725.27;713046;1206;115017;-73
2021/10/18 00:57:56;;;;;;;14.87;7.47;;;;;;;7.69;100.00;100725.47;713160;1203;114193;-74
2021/10/18 01:12:59;;;;;;;49.90;23.83;;;;;;;7.70;100.00;100731.54;712956;1203;114296;-74
2021/10/18 01:28:02;;;;;;;19.05;9.75;;;;;;;7.56;100.00;100742.91;712953;1208;114280;-74
2021/10/18 01:43:04;;;;;;;18.58;9.65;;;;;;;7.50;100.00;100752.02;712878;1192;114334;-73
2021/10/18 01:58:08;;;;;;;15.67;7.57;;;;;;;7.58;100.00;100765.38;714003;1207;114461;-73
2021/10/18 02:13:10;;;;;;;16.93;9.90;;;;;;;7.71;100.00;100770.61;712897;1205;115703;-74
2021/10/18 02:28:12;;;;;;;17.63;8.55;;;;;;;7.85;100.00;100771.43;712890;1205;114321;-73
2021/10/18 02:43:14;;;;;;;9.43;6.10;;;;;;;7.91;100.00;100782.29;713124;1203;114046;-74
2021/10/18 02:58:16;;;;;;;14.05;6.15;;;;;;;8.04;100.00;100787.51;714289;1179;114369;-73
2021/10/18 03:13:19;;;;;;;16.93;7.63;;;;;;;8.16;100.00;100786.64;713311;1203;114783;-74
2021/10/18 03:28:22;;;;;;;9.50;5.57;;;;;;;8.16;100.00;100812.78;712727;1203;114431;-73
2021/10/18 03:43:24;;;;;;;12.05;7.05;;;;;;;8.04;100.00;100818.87;712878;1199;114480;-74
2021/10/18 03:58:26;;;;;;;14.98;7.20;;;;;;;8.10;100.00;100821.06;712926;1181;114125;-74
2021/10/18 04:13:29;;;;;;;12.23;6.70;;;;;;;8.07;100.00;100834.32;712631;1205;115290;-75
2021/10/18 04:28:31;;;;;;;12.20;6.25;;;;;;;7.95;100.00;100856.08;712730;1203;114349;-74
2021/10/18 04:43:33;;;;;;;11.90;6.35;;;;;;;7.70;100.00;100868.17;712934;1205;114208;-74
2021/10/18 04:58:35;;;;;;;10.40;5.45;;;;;;;7.53;100.00;100877.11;712852;1203;114551;-73
2021/10/18 05:13:37;;;;;;;12.43;6.83;;;;;;;7.53;100.00;100897.17;715259;1169;114987;-72
2021/10/18 05:28:40;;;;;;;14.10;7.55;;;;;;;7.54;100.00;100917.96;712731;1203;114054;-72
2021/10/18 05:43:42;;;;;;;19.47;9.10;;;;;;;7.59;100.00;100925.51;712586;1203;115068;-73
2021/10/18 05:58:44;;;;;;;18.28;7.93;;;;;;;7.62;100.00;100938.35;712518;1203;114233;-74
2021/10/18 06:13:46;;;;;;;24.40;14.10;;;;;;;7.58;100.00;100958.59;712641;1205;115408;-72
2021/10/18 06:28:48;;;;;;;12.50;8.20;;;;;;;7.61;100.00;100965.39;713033;1203;114741;-74
2021/10/18 06:43:50;;;;;;;40.27;23.47;;;;;;;7.78;100.00;101019.16;712641;1207;115044;-80
2021/10/18 06:58:53;;;;;;;20.05;12.30;;;;;;;8.20;100.00;101040.80;712684;1203;114918;-75
2021/10/18 07:13:56;;;;;;;24.95;12.00;;;;;;;8.06;100.00;101046.09;712583;1196;113902;-70
2021/10/18 07:28:59;;;;;;;14.03;9.23;;;;;;;8.42;100.00;101076.83;712645;1203;114011;-75
2021/10/18 07:44:01;;;;;;;14.57;8.83;;;;;;;8.52;100.00;101078.86;712622;1181;113853;-75
2021/10/18 07:59:03;;;;;;;14.80;8.00;;;;;;;8.57;100.00;101076.77;712731;1206;114431;-82
2021/10/18 08:14:06;;;;;;;23.45;13.48;;;;;;;8.94;100.00;101085.56;712969;1181;113937;-76
2021/10/18 08:29:09;;;;;;;30.10;20.83;;;;;;;9.70;100.00;101087.33;712870;1207;114460;-73
2021/10/18 08:44:17;;;;;;;14.55;9.85;;;;;;;10.72;100.00;101079.91;712813;1208;113902;-72
2021/10/18 08:59:20;;;;;;;9.23;6.63;;;;;;;11.89;100.00;101097.02;714153;1203;115749;-82
2021/10/18 09:14:23;;;;;;;10.68;5.55;;;;;;;13.11;100.00;101094.83;713194;1180;113977;-75
2021/10/18 09:29:46;;;;;;;9.83;5.73;;;;;;;13.91;100.00;101107.28;713090;1180;114730;-77
2021/10/18 09:45:17;;;;;;;6.68;4.18;;;;;;;14.75;100.00;101117.28;712856;1209;115263;-75
2021/10/18 11:02:11;;;;;;;4.75;3.10;;;;;;;15.56;79.24;101126.45;713079;1206;114458;-74
2021/10/18 11:17:15;;;;;;;6.43;2.80;;;;;;;16.04;77.49;101113.92;713427;1205;114180;-75
2021/10/18 11:32:18;;;;;;;7.40;3.20;;;;;;;16.42;75.71;101103.99;716383;1206;114427;-75
2021/10/18 11:47:39;;;;;;;9.00;4.93;;;;;;;16.69;72.29;101090.77;712634;1196;114590;-74
2021/10/18 12:02:42;;;;;;;12.70;6.60;;;;;;;15.38;72.52;101092.03;716635;1203;115453;-75
2021/10/18 12:17:45;;;;;;;6.23;3.53;;;;;;;15.85;72.32;101088.45;714249;1203;114182;-75
2021/10/18 12:33:13;;;;;;;46.10;24.37;;;;;;;16.88;70.00;101105.61;712542;1205;115609;-78
2021/10/18 12:48:22;;;;;;;10.55;6.00;;;;;;;14.87;69.03;101110.02;713172;1205;115928;-78
2021/10/18 13:03:25;;;;;;;28.28;14.53;;;;;;;14.77;70.14;101099.50;716434;1203;115078;-78
2021/10/18 13:18:29;;;;;;;72.17;31.33;;;;;;;13.97;69.64;101096.19;713507;1177;115701;-77
2021/10/18 13:33:31;;;;;;;13.78;6.85;;;;;;;14.11;72.90;101106.34;712869;1203;114987;-79
2021/10/18 13:48:34;;;;;;;14.70;9.17;;;;;;;13.85;73.75;101099.94;713137;1203;114448;-78
2021/10/18 14:03:37;;;;;;;20.00;10.77;;;;;;;13.38;76.21;101100.51;712990;1202;114971;-75
2021/10/18 14:18:39;;;;;;;50.70;23.90;;;;;;;13.09;78.27;101120.48;712938;1208;114511;-77
2021/10/18 14:33:42;;;;;;;24.33;13.83;;;;;;;12.74;80.38;101119.03;713035;1203;114746;-78
2021/10/18 14:48:44;;;;;;;109.05;51.55;;;;;;;12.69;82.56;101118.58;712925;1180;114489;-77
2021/10/18 15:03:46;;;;;;;71.20;50.17;;;;;;;12.41;84.62;101117.42;713072;1205;114637;-82
2021/10/18 15:18:49;;;;;;;149.10;55.03;;;;;;;12.31;86.40;101126.08;713106;1208;114565;-81
2021/10/18 15:33:52;;;;;;;194.33;83.70;;;;;;;12.16;88.68;101127.33;712915;1206;114511;-82
2021/10/18 15:48:55;;;;;;;452.77;161.93;;;;;;;12.06;90.86;101123.77;713226;1203;115299;-79
2021/10/18 16:03:58;;;;;;;237.75;75.85;;;;;;;12.15;93.11;101134.39;713093;1180;114808;-76
2021/10/18 16:19:01;;;;;;;44.95;20.65;;;;;;;11.90;94.13;101139.91;713837;1203;114996;-79
2021/10/18 16:34:04;;;;;;;79.70;31.75;;;;;;;11.67;97.09;101145.22;712982;1203;115783;-78
2021/10/18 16:49:15;;;;;;;25.40;14.85;;;;;;;11.53;98.66;101141.03;714460;1203;115941;-77
2021/10/18 17:04:18;;;;;;;32.38;15.25;;;;;;;11.58;100.00;101148.57;712946;1180;114318;-77
2021/10/18 17:19:27;;;;;;;20.05;12.05;;;;;;;11.58;100.00;101151.20;713204;1180;115497;-77
2021/10/18 17:34:31;;;;;;;46.75;22.40;;;;;;;11.70;100.00;101152.84;712940;1203;114994;-76
2021/10/18 17:49:34;;;;;;;197.70;78.00;;;;;;;11.42;100.00;101162.08;713728;1181;114657;-76
2021/10/18 18:04:39;;;;;;;51.60;27.07;;;;;;;11.19;100.00;101169.95;712921;1180;114734;-78
2021/10/18 18:19:43;;;;;;;44.70;24.67;;;;;;;10.85;100.00;101169.88;713039;1204;114927;-79
2021/10/18 18:34:50;;;;;;;;;;;;;;;10.64;100.00;101185.44;713021;1203;116110;-77
2021/10/18 18:49:52;;;;;;;27.38;15.83;;;;;;;10.60;100.00;101208.44;712707;1180;101635;-79
2021/10/18 19:04:55;;;;;;;22.43;12.83;;;;;;;10.51;100.00;101197.80;713032;1197;114437;-80
2021/10/18 19:19:58;;;;;;;36.83;23.50;;;;;;;10.46;100.00;101204.19;713035;1203;114481;-79
2021/10/18 19:35:00;;;;;;;26.00;14.23;;;;;;;10.26;100.00;101200.36;712608;1203;115021;-78
2021/10/18 19:50:05;;;;;;;48.80;19.50;;;;;;;10.28;100.00;101215.98;713380;1206;115273;-81
2021/10/18 20:05:08;;;;;;;9.98;6.75;;;;;;;10.35;100.00;101216.38;713001;1203;114400;-79
2021/10/18 20:20:12;;;;;;;11.13;8.10;;;;;;;10.14;100.00;101216.98;712864;1203;115375;-77
2021/10/18 20:35:19;;;;;;;8.23;4.90;;;;;;;10.09;100.00;101221.72;714007;1203;115902;-77
2021/10/18 20:50:21;;;;;;;9.88;5.05;;;;;;;10.14;100.00;101238.79;713349;1180;113988;-77
2021/10/18 21:05:24;;;;;;;8.83;5.37;;;;;;;9.92;100.00;101244.70;713596;1203;114573;-78
2021/10/18 21:20:28;;;;;;;11.85;5.58;;;;;;;9.91;100.00;101257.92;713137;1180;114809;-77
2021/10/18 21:35:31;;;;;;;11.30;5.33;;;;;;;9.85;100.00;101253.95;713382;1203;114328;-76
2021/10/18 21:50:34;;;;;;;21.80;13.63;;;;;;;9.82;100.00;101262.86;713291;1203;114688;-78
2021/10/18 22:05:37;;;;;;;13.77;7.83;;;;;;;9.82;100.00;101280.39;713080;1203;114154;-77
2021/10/18 22:20:39;;;;;;;10.47;6.50;;;;;;;9.89;100.00;101276.38;713705;1203;115487;-78
2021/10/18 22:35:42;;;;;;;13.40;7.50;;;;;;;9.95;100.00;101270.72;712903;1180;113975;-79
2021/10/18 22:50:44;;;;;;;9.07;5.50;;;;;;;9.82;100.00;101262.86;712692;1181;113976;-79
2021/10/18 23:05:46;;;;;;;8.73;5.90;;;;;;;9.75;100.00;101260.77;712660;1205;113853;-76
2021/10/18 23:20:49;;;;;;;6.55;4.10;;;;;;;9.70;100.00;101275.97;712629;1206;114653;-79
2021/10/18 23:35:52;;;;;;;5.70;3.40;;;;;;;9.59;100.00;101268.85;713215;1180;113912;-79
2021/10/18 23:50:54;;;;;;;6.90;3.90;;;;;;;9.53;100.00;101262.26;712665;1181;114254;-78
